Time;durP1;ratioP1;P1;durP2;ratioP2;P2;SDS_P1;SDS_P2;PMS_P1;PMS_P2;Temp;Humidity;BMP_temperature;BMP_pressure;BME280_temperature;BME280_humidity;BME280_pressure;Samples;Min_cycle;Max_cycle;Signal;HPM_P1;HPM_P2
2023/08/17 00:01:57;;;;;;;0.30;0.30;;;;;;;;;;7386791;19;20360;-89
2023/08/17 00:04:24;;;;;;;0.43;0.43;;;;;;;;;;7399999;19;20360;-87
2023/08/17 00:06:50;;;;;;;0.50;0.50;;;;;;;;;;7389325;19;20435;-88
2023/08/17 00:09:17;;;;;;;0.50;0.50;;;;;;;;;;7395025;19;20404;-88
2023/08/17 00:11:44;;;;;;;0.55;0.55;;;;;;;;;;7399464;19;20340;-87
2023/08/17 00:14:11;;;;;;;0.68;0.68;;;;;;;;;;7411411;19;20406;-88
2023/08/17 00:16:37;;;;;;;0.50;0.50;;;;;;;;;;7411099;19;20337;-88
2023/08/17 00:19:04;;;;;;;0.40;0.40;;;;;;;;;;7412966;19;20368;-88
2023/08/17 00:21:31;;;;;;;0.52;0.52;;;;;;;;;;7408120;19;20894;-88
2023/08/17 00:23:58;;;;;;;0.40;0.40;;;;;;;;;;7391038;19;20792;-88
2023/08/17 00:26:25;;;;;;;0.50;0.50;;;;;;;;;;7396852;19;20368;-88
2023/08/17 00:28:51;;;;;;;0.80;0.80;;;;;;;;;;7396964;19;20355;-89
2023/08/17 00:31:18;;;;;;;0.75;0.75;;;;;;;;;;7397508;19;20373;-87
2023/08/17 00:33:45;;;;;;;0.40;0.40;;;;;;;;;;7392448;19;20365;-87
2023/08/17 00:36:11;;;;;;;0.65;0.65;;;;;;;;;;7393801;19;21835;-88
2023/08/17 00:38:38;;;;;;;0.50;0.50;;;;;;;;;;7394110;19;20384;-88
2023/08/17 00:41:05;;;;;;;0.50;0.50;;;;;;;;;;7393801;19;20800;-87
2023/08/17 00:43:32;;;;;;;0.80;0.50;;;;;;;;;;7394297;19;20377;-87
2023/08/17 00:45:59;;;;;;;0.50;0.50;;;;;;;;;;7394152;19;20348;-89
2023/08/17 00:48:26;;;;;;;0.60;0.60;;;;;;;;;;7394554;19;20354;-88
2023/08/17 00:50:53;;;;;;;0.60;0.60;;;;;;;;;;7394910;19;20419;-88
2023/08/17 00:53:20;;;;;;;0.40;0.40;;;;;;;;;;7391437;19;20364;-88
2023/08/17 00:55:48;;;;;;;0.60;0.60;;;;;;;;;;7390265;19;20378;-87
2023/08/17 00:58:15;;;;;;;0.32;0.32;;;;;;;;;;7388808;19;20351;-88
2023/08/17 01:00:42;;;;;;;0.43;0.43;;;;;;;;;;7392369;19;20416;-88
2023/08/17 01:03:08;;;;;;;0.40;0.40;;;;;;;;;;7387406;19;20970;-87
2023/08/17 01:05:36;;;;;;;0.60;0.60;;;;;;;;;;7395097;19;20882;-88
2023/08/17 01:08:03;;;;;;;0.40;0.40;;;;;;;;;;7395946;19;20331;-88
2023/08/17 01:10:38;;;;;;;1.00;0.90;;;;;;;;;;7391823;19;20365;-88
2023/08/17 01:13:19;;;;;;;0.30;0.30;;;;;;;;;;7399727;19;20349;-88
2023/08/17 01:15:50;;;;;;;0.50;0.50;;;;;;;;;;7399597;19;20352;-88
2023/08/17 01:18:23;;;;;;;0.55;0.55;;;;;;;;;;7401187;19;20364;-88
2023/08/17 01:20:50;;;;;;;0.40;0.40;;;;;;;;;;7402675;19;20368;-88
2023/08/17 01:23:17;;;;;;;0.50;0.50;;;;;;;;;;7400076;19;20345;-87
2023/08/17 01:25:43;;;;;;;0.55;0.55;;;;;;;;;;7404193;19;20454;-89
2023/08/17 01:28:10;;;;;;;1.10;0.77;;;;;;;;;;7406516;19;20357;-88
2023/08/17 01:30:53;;;;;;;0.38;0.38;;;;;;;;;;7403604;19;20954;-88
2023/08/17 01:33:33;;;;;;;1.50;1.00;;;;;;;;;;7399915;19;20356;-88
2023/08/17 01:36:12;;;;;;;0.40;0.40;;;;;;;;;;7399276;19;20384;-88
2023/08/17 01:38:40;;;;;;;0.77;0.77;;;;;;;;;;7402208;19;20352;-88
2023/08/17 01:41:12;;;;;;;0.52;0.52;;;;;;;;;;7400390;19;20795;-87
2023/08/17 01:43:42;;;;;;;0.50;0.50;;;;;;;;;;7400901;19;20416;-87
2023/08/17 01:46:08;;;;;;;0.57;0.57;;;;;;;;;;7399685;19;20977;-88
2023/08/17 01:48:35;;;;;;;0.40;0.40;;;;;;;;;;7400207;19;20894;-88
2023/08/17 01:51:02;;;;;;;0.50;0.50;;;;;;;;;;7401030;19;20471;-89
2023/08/17 01:53:28;;;;;;;0.30;0.30;;;;;;;;;;7396513;19;20345;-87
2023/08/17 01:55:55;;;;;;;0.40;0.40;;;;;;;;;;7399668;19;20349;-88
2023/08/17 01:58:22;;;;;;;0.40;0.40;;;;;;;;;;7404452;19;20344;-88
2023/08/17 02:00:48;;;;;;;0.50;0.50;;;;;;;;;;7395056;19;20672;-88
2023/08/17 02:03:15;;;;;;;0.40;0.40;;;;;;;;;;7401083;19;20348;-87
2023/08/17 02:05:46;;;;;;;0.40;0.40;;;;;;;;;;7398371;19;20365;-88
2023/08/17 02:08:12;;;;;;;0.40;0.40;;;;;;;;;;7401757;19;20393;-88
2023/08/17 02:10:39;;;;;;;0.30;0.30;;;;;;;;;;7398153;19;20336;-88
2023/08/17 02:13:06;;;;;;;0.60;0.60;;;;;;;;;;7402140;19;20348;-87
2023/08/17 02:15:43;;;;;;;0.40;0.40;;;;;;;;;;7402464;19;20710;-88
2023/08/17 02:18:10;;;;;;;0.80;0.50;;;;;;;;;;7401307;19;20706;-88
2023/08/17 02:20:37;;;;;;;0.50;0.50;;;;;;;;;;7402902;19;20325;-88
2023/08/17 02:23:03;;;;;;;0.45;0.45;;;;;;;;;;7403438;19;20329;-87
2023/08/17 02:25:35;;;;;;;0.40;0.40;;;;;;;;;;7401254;19;20380;-88
2023/08/17 02:28:03;;;;;;;0.40;0.40;;;;;;;;;;7397483;19;20341;-88
2023/08/17 02:30:30;;;;;;;0.68;0.68;;;;;;;;;;7401622;19;20381;-87
2023/08/17 02:32:57;;;;;;;0.40;0.40;;;;;;;;;;7400900;19;20345;-88
2023/08/17 02:35:24;;;;;;;0.50;0.50;;;;;;;;;;7397033;19;20355;-87
2023/08/17 02:37:51;;;;;;;0.32;0.32;;;;;;;;;;7399333;19;20910;-88
2023/08/17 02:40:17;;;;;;;0.47;0.47;;;;;;;;;;7401549;19;20357;-88
2023/08/17 02:42:44;;;;;;;0.90;0.50;;;;;;;;;;7402280;19;20367;-87
2023/08/17 02:45:11;;;;;;;0.75;0.50;;;;;;;;;;7413057;19;20334;-86
2023/08/17 02:47:38;;;;;;;0.50;0.50;;;;;;;;;;7409339;19;20344;-88
2023/08/17 02:50:05;;;;;;;0.30;0.30;;;;;;;;;;7405232;19;20443;-87
2023/08/17 02:52:32;;;;;;;0.45;0.45;;;;;;;;;;7405944;19;20360;-88
2023/08/17 02:54:59;;;;;;;0.30;0.30;;;;;;;;;;7404000;19;20361;-88
2023/08/17 02:57:25;;;;;;;0.50;0.50;;;;;;;;;;7401998;19;20355;-88
2023/08/17 02:59:52;;;;;;;0.40;0.40;;;;;;;;;;7403601;19;20340;-88
2023/08/17 03:02:19;;;;;;;0.30;0.30;;;;;;;;;;7402062;19;21065;-88
2023/08/17 03:04:46;;;;;;;0.40;0.40;;;;;;;;;;7401776;19;20709;-88
2023/08/17 03:07:12;;;;;;;0.40;0.40;;;;;;;;;;7400734;19;20420;-88
2023/08/17 03:09:39;;;;;;;0.30;0.30;;;;;;;;;;7399444;19;20348;-88
2023/08/17 03:12:06;;;;;;;0.50;0.50;;;;;;;;;;7401996;19;20894;-88
2023/08/17 03:14:32;;;;;;;0.47;0.47;;;;;;;;;;7398540;19;20385;-88
2023/08/17 03:16:59;;;;;;;0.40;0.40;;;;;;;;;;7398587;19;20404;-88
2023/08/17 03:19:26;;;;;;;0.40;0.40;;;;;;;;;;7397359;19;20447;-88
2023/08/17 03:21:52;;;;;;;0.50;0.50;;;;;;;;;;7396449;19;20361;-88
2023/08/17 03:24:19;;;;;;;0.45;0.43;;;;;;;;;;7398884;19;20346;-87
2023/08/17 03:26:46;;;;;;;0.50;0.50;;;;;;;;;;7399168;19;20340;-88
2023/08/17 03:29:12;;;;;;;0.50;0.50;;;;;;;;;;7399129;19;20349;-88
2023/08/17 03:31:39;;;;;;;0.50;0.50;;;;;;;;;;7392603;19;20351;-88
2023/08/17 03:34:05;;;;;;;0.70;0.70;;;;;;;;;;7392733;19;20404;-87
2023/08/17 03:36:32;;;;;;;0.50;0.50;;;;;;;;;;7384670;19;20400;-87
2023/08/17 03:38:59;;;;;;;0.40;0.40;;;;;;;;;;7391757;19;20351;-87
2023/08/17 03:41:25;;;;;;;0.60;0.60;;;;;;;;;;7391474;19;20352;-87
2023/08/17 03:43:52;;;;;;;0.38;0.38;;;;;;;;;;7394719;19;20415;-88
2023/08/17 03:46:19;;;;;;;0.60;0.52;;;;;;;;;;7392873;19;20363;-88
2023/08/17 03:48:45;;;;;;;0.55;0.55;;;;;;;;;;7395414;19;20373;-88
2023/08/17 03:51:12;;;;;;;0.50;0.50;;;;;;;;;;7390952;19;20876;-87
2023/08/17 03:53:39;;;;;;;0.50;0.50;;;;;;;;;;7393957;19;20348;-87
2023/08/17 03:56:05;;;;;;;0.80;0.80;;;;;;;;;;7392202;19;20377;-87
2023/08/17 03:58:34;;;;;;;0.40;0.40;;;;;;;;;;7391278;19;20934;-87
2023/08/17 04:01:03;;;;;;;0.70;0.70;;;;;;;;;;7389534;19;20348;-88
2023/08/17 04:03:29;;;;;;;0.47;0.47;;;;;;;;;;7399920;19;20356;-88
2023/08/17 04:05:56;;;;;;;0.57;0.57;;;;;;;;;;7392306;19;20351;-88
2023/08/17 04:08:23;;;;;;;0.60;0.60;;;;;;;;;;7397174;19;20341;-89
2023/08/17 04:10:49;;;;;;;0.50;0.50;;;;;;;;;;7394577;19;20360;-88
2023/08/17 04:13:16;;;;;;;0.53;0.53;;;;;;;;;;7394463;19;20348;-88
2023/08/17 04:15:43;;;;;;;0.50;0.50;;;;;;;;;;7392238;19;20372;-88
2023/08/17 04:18:09;;;;;;;0.43;0.43;;;;;;;;;;7393096;19;20412;-88
2023/08/17 04:20:36;;;;;;;1.40;0.70;;;;;;;;;;7394002;19;20369;-88
2023/08/17 04:23:03;;;;;;;0.70;0.70;;;;;;;;;;7387714;19;20936;-88
2023/08/17 04:25:30;;;;;;;0.50;0.50;;;;;;;;;;7381209;19;20374;-87
2023/08/17 04:27:56;;;;;;;0.40;0.40;;;;;;;;;;7388166;19;20373;-88
2023/08/17 04:30:23;;;;;;;0.57;0.57;;;;;;;;;;7386950;19;20824;-88
2023/08/17 04:32:52;;;;;;;0.55;0.55;;;;;;;;;;7392315;19;20352;-87
2023/08/17 04:35:19;;;;;;;0.47;0.47;;;;;;;;;;7392643;19;20344;-87
2023/08/17 04:37:49;;;;;;;0.60;0.60;;;;;;;;;;7393291;19;20392;-87
2023/08/17 04:40:16;;;;;;;0.70;0.68;;;;;;;;;;7396276;19;20364;-87
2023/08/17 04:42:42;;;;;;;0.77;0.77;;;;;;;;;;7396716;19;20364;-88
2023/08/17 04:45:09;;;;;;;0.60;0.60;;;;;;;;;;7398932;19;20361;-88
2023/08/17 04:47:36;;;;;;;0.35;0.35;;;;;;;;;;7398992;19;20380;-87
2023/08/17 04:50:03;;;;;;;0.40;0.40;;;;;;;;;;7397213;19;20380;-88
2023/08/17 04:52:30;;;;;;;0.70;0.70;;;;;;;;;;7400586;19;20348;-88
2023/08/17 04:54:57;;;;;;;2.45;0.70;;;;;;;;;;7398857;19;20345;-87
2023/08/17 04:57:30;;;;;;;0.90;0.80;;;;;;;;;;7399361;19;20489;-88
2023/08/17 05:00:11;;;;;;;0.50;0.50;;;;;;;;;;7397366;19;20378;-88
2023/08/17 05:02:38;;;;;;;0.50;0.50;;;;;;;;;;7401742;19;20380;-88
2023/08/17 05:05:06;;;;;;;0.60;0.50;;;;;;;;;;7397821;19;20356;-87
2023/08/17 05:07:33;;;;;;;0.60;0.60;;;;;;;;;;7394290;19;20359;-88
2023/08/17 05:10:00;;;;;;;0.75;0.75;;;;;;;;;;7401227;19;20359;-88
2023/08/17 05:12:27;;;;;;;0.70;0.70;;;;;;;;;;7394142;19;20665;-88
2023/08/17 05:14:54;;;;;;;0.60;0.60;;;;;;;;;;7400185;19;20356;-87
2023/08/17 05:17:21;;;;;;;0.50;0.50;;;;;;;;;;7389170;19;20360;-86
2023/08/17 05:19:48;;;;;;;0.77;0.77;;;;;;;;;;7382766;19;20394;-86
2023/08/17 05:22:15;;;;;;;0.52;0.52;;;;;;;;;;7378458;19;20352;-87
2023/08/17 05:24:41;;;;;;;0.88;0.88;;;;;;;;;;7385157;19;20662;-85
2023/08/17 05:27:08;;;;;;;0.52;0.52;;;;;;;;;;7386025;19;20337;-84
2023/08/17 05:29:35;;;;;;;0.65;0.65;;;;;;;;;;7389922;19;20831;-83
2023/08/17 05:32:01;;;;;;;0.47;0.45;;;;;;;;;;7389714;19;20340;-83
2023/08/17 05:34:28;;;;;;;0.40;0.40;;;;;;;;;;7395315;19;20348;-84
2023/08/17 05:36:55;;;;;;;0.50;0.50;;;;;;;;;;7390449;19;20922;-84
2023/08/17 05:39:21;;;;;;;0.68;0.68;;;;;;;;;;7392003;19;20345;-84
2023/08/17 05:41:48;;;;;;;0.68;0.68;;;;;;;;;;7395989;19;20345;-86
2023/08/17 05:44:15;;;;;;;0.63;0.63;;;;;;;;;;7399115;19;20360;-86
2023/08/17 05:46:42;;;;;;;0.52;0.52;;;;;;;;;;7391290;19;20378;-86
2023/08/17 05:49:08;;;;;;;0.55;0.55;;;;;;;;;;7400580;19;20372;-87
2023/08/17 05:51:35;;;;;;;0.52;0.52;;;;;;;;;;7407246;19;20796;-86
2023/08/17 05:54:02;;;;;;;0.50;0.50;;;;;;;;;;7402156;19;20343;-87
2023/08/17 05:56:28;;;;;;;0.45;0.45;;;;;;;;;;7403523;19;20435;-86
2023/08/17 05:58:55;;;;;;;1.50;0.60;;;;;;;;;;7402936;19;20408;-86
2023/08/17 06:01:22;;;;;;;0.60;0.60;;;;;;;;;;7399977;19;20352;-86
2023/08/17 06:03:49;;;;;;;0.65;0.65;;;;;;;;;;7418288;19;20392;-87
2023/08/17 06:06:16;;;;;;;1.80;0.70;;;;;;;;;;7421318;19;20358;-87
2023/08/17 06:08:43;;;;;;;0.73;0.73;;;;;;;;;;7429610;19;20371;-87
2023/08/17 06:11:09;;;;;;;0.60;0.60;;;;;;;;;;7425688;19;20368;-88
2023/08/17 06:13:36;;;;;;;1.00;0.88;;;;;;;;;;7425967;19;20359;-88
2023/08/17 06:16:03;;;;;;;0.63;0.63;;;;;;;;;;7420896;19;20416;-88
2023/08/17 06:18:30;;;;;;;0.50;0.50;;;;;;;;;;7421618;19;20364;-89
2023/08/17 06:20:57;;;;;;;0.80;0.80;;;;;;;;;;7428773;19;20357;-87
2023/08/17 06:23:24;;;;;;;0.40;0.40;;;;;;;;;;7421206;19;20355;-88
2023/08/17 06:25:50;;;;;;;0.60;0.60;;;;;;;;;;7420347;19;20385;-88
2023/08/17 06:28:17;;;;;;;0.45;0.45;;;;;;;;;;7417219;19;20900;-88
2023/08/17 06:30:44;;;;;;;0.80;0.80;;;;;;;;;;7424943;19;20361;-88
2023/08/17 06:33:11;;;;;;;0.60;0.60;;;;;;;;;;7427977;19;20357;-88
2023/08/17 06:35:37;;;;;;;0.50;0.50;;;;;;;;;;7429011;19;20369;-87
2023/08/17 06:38:04;;;;;;;0.60;0.60;;;;;;;;;;7427233;19;20356;-88
2023/08/17 06:40:31;;;;;;;1.20;0.80;;;;;;;;;;7416019;19;20377;-88
2023/08/17 06:42:57;;;;;;;0.52;0.52;;;;;;;;;;7400970;19;20356;-88
2023/08/17 06:45:24;;;;;;;0.50;0.50;;;;;;;;;;7400536;19;20345;-88
2023/08/17 06:47:51;;;;;;;0.50;0.50;;;;;;;;;;7398461;19;20411;-88
2023/08/17 06:50:17;;;;;;;0.50;0.50;;;;;;;;;;7395326;19;20428;-88
2023/08/17 06:52:44;;;;;;;0.80;0.80;;;;;;;;;;7396376;19;20352;-89
2023/08/17 06:55:11;;;;;;;0.40;0.40;;;;;;;;;;7397021;19;20348;-89
2023/08/17 06:57:37;;;;;;;0.50;0.50;;;;;;;;;;7393326;19;20894;-88
2023/08/17 07:00:05;;;;;;;0.50;0.50;;;;;;;;;;7395976;19;20444;-87
2023/08/17 07:02:32;;;;;;;0.70;0.70;;;;;;;;;;7393332;19;20510;-88
2023/08/17 07:05:20;;;;;;;0.40;0.40;;;;;;;;;;7398972;19;20344;-88
2023/08/17 07:07:48;;;;;;;0.60;0.60;;;;;;;;;;7400708;19;20364;-88
2023/08/17 07:10:14;;;;;;;0.43;0.43;;;;;;;;;;7398704;19;20424;-88
2023/08/17 07:12:41;;;;;;;0.60;0.60;;;;;;;;;;7399786;19;20712;-85
2023/08/17 07:15:08;;;;;;;0.90;0.90;;;;;;;;;;7403788;19;20356;-86
2023/08/17 07:17:36;;;;;;;0.50;0.50;;;;;;;;;;7403335;19;20352;-86
2023/08/17 07:20:04;;;;;;;0.40;0.40;;;;;;;;;;7406334;19;20357;-86
2023/08/17 07:22:33;;;;;;;0.57;0.57;;;;;;;;;;7401617;19;20773;-86
2023/08/17 07:25:00;;;;;;;0.50;0.50;;;;;;;;;;7404908;19;20669;-87
2023/08/17 07:27:27;;;;;;;0.60;0.60;;;;;;;;;;7399514;19;20369;-86
2023/08/17 07:29:54;;;;;;;0.45;0.45;;;;;;;;;;7402427;19;20368;-87
2023/08/17 07:32:21;;;;;;;0.67;0.67;;;;;;;;;;7399764;19;20392;-87
2023/08/17 07:34:48;;;;;;;0.60;0.60;;;;;;;;;;7401981;19;20348;-87
2023/08/17 07:37:14;;;;;;;0.90;0.77;;;;;;;;;;7398542;19;20329;-87
2023/08/17 07:39:41;;;;;;;0.50;0.50;;;;;;;;;;7402054;19;20347;-87
2023/08/17 07:42:08;;;;;;;0.60;0.60;;;;;;;;;;7399192;19;20356;-87
2023/08/17 07:44:35;;;;;;;0.70;0.70;;;;;;;;;;7401233;19;20357;-87
2023/08/17 07:47:02;;;;;;;0.50;0.50;;;;;;;;;;7397720;19;20946;-87
2023/08/17 07:49:29;;;;;;;0.40;0.40;;;;;;;;;;7401086;19;20935;-87
2023/08/17 07:51:58;;;;;;;0.40;0.40;;;;;;;;;;7399668;19;20344;-87
2023/08/17 07:54:24;;;;;;;0.50;0.50;;;;;;;;;;7400547;19;20888;-87
2023/08/17 07:56:51;;;;;;;0.70;0.70;;;;;;;;;;7399070;19;20737;-87
2023/08/17 07:59:18;;;;;;;0.80;0.80;;;;;;;;;;7400186;19;20340;-87
2023/08/17 08:01:45;;;;;;;0.65;0.65;;;;;;;;;;7399973;19;20353;-87
2023/08/17 08:04:11;;;;;;;0.63;0.63;;;;;;;;;;7400762;19;20375;-87
2023/08/17 08:06:38;;;;;;;0.50;0.50;;;;;;;;;;7399849;19;20683;-87
2023/08/17 08:09:05;;;;;;;0.60;0.60;;;;;;;;;;7402108;19;20773;-86
2023/08/17 08:11:31;;;;;;;2.20;1.00;;;;;;;;;;7398603;19;20353;-87
2023/08/17 08:13:58;;;;;;;0.90;0.70;;;;;;;;;;7398067;19;20364;-88
2023/08/17 08:16:25;;;;;;;0.50;0.50;;;;;;;;;;7399527;19;20329;-87
2023/08/17 08:18:51;;;;;;;0.60;0.60;;;;;;;;;;7398234;19;20343;-86
2023/08/17 08:21:19;;;;;;;0.52;0.52;;;;;;;;;;7399575;19;20355;-87
2023/08/17 08:23:46;;;;;;;0.80;0.80;;;;;;;;;;7399238;19;20710;-88
2023/08/17 08:26:13;;;;;;;0.55;0.50;;;;;;;;;;7397805;19;20360;-87
2023/08/17 08:28:40;;;;;;;0.70;0.70;;;;;;;;;;7400641;19;20478;-88
2023/08/17 08:31:06;;;;;;;0.70;0.70;;;;;;;;;;7400185;19;20388;-88
2023/08/17 08:33:33;;;;;;;0.50;0.50;;;;;;;;;;7397623;19;20845;-87
2023/08/17 08:36:00;;;;;;;0.70;0.70;;;;;;;;;;7398643;19;20332;-87
2023/08/17 08:38:27;;;;;;;0.70;0.70;;;;;;;;;;7397925;19;20369;-87
2023/08/17 08:40:53;;;;;;;0.82;0.80;;;;;;;;;;7400646;19;20340;-87
2023/08/17 08:43:20;;;;;;;0.82;0.82;;;;;;;;;;7399178;19;20415;-89
2023/08/17 08:45:47;;;;;;;0.80;0.73;;;;;;;;;;7396095;19;20371;-88
2023/08/17 08:48:15;;;;;;;1.20;0.87;;;;;;;;;;7396871;19;20360;-88
2023/08/17 08:50:43;;;;;;;0.85;0.80;;;;;;;;;;7422737;19;20357;-89
2023/08/17 08:53:17;;;;;;;0.60;0.60;;;;;;;;;;7423235;19;20385;-89
2023/08/17 08:55:49;;;;;;;0.60;0.60;;;;;;;;;;7423440;19;20380;-88
2023/08/17 08:58:16;;;;;;;0.80;0.80;;;;;;;;;;7422706;19;20350;-88
2023/08/17 09:00:46;;;;;;;0.57;0.57;;;;;;;;;;7424601;19;20357;-88
2023/08/17 09:03:16;;;;;;;1.15;1.05;;;;;;;;;;7418424;19;20348;-89
2023/08/17 09:05:50;;;;;;;0.73;0.73;;;;;;;;;;7414094;19;20357;-88
2023/08/17 09:08:25;;;;;;;0.68;0.68;;;;;;;;;;7419344;19;20360;-89
2023/08/17 09:10:51;;;;;;;0.60;0.60;;;;;;;;;;7422036;19;20373;-87
2023/08/17 09:13:18;;;;;;;0.70;0.70;;;;;;;;;;7401055;19;20356;-87
2023/08/17 09:15:45;;;;;;;0.63;0.63;;;;;;;;;;7399774;19;20360;-87
2023/08/17 09:18:12;;;;;;;0.65;0.65;;;;;;;;;;7400471;19;20355;-88
2023/08/17 09:20:47;;;;;;;0.80;0.80;;;;;;;;;;7401700;19;20352;-87
2023/08/17 09:23:16;;;;;;;0.70;0.70;;;;;;;;;;7403307;19;20432;-89
2023/08/17 09:25:44;;;;;;;0.63;0.63;;;;;;;;;;7404603;19;20387;-88
2023/08/17 09:28:14;;;;;;;2.00;1.45;;;;;;;;;;7409211;19;20480;-88
2023/08/17 09:30:53;;;;;;;1.02;0.93;;;;;;;;;;7408231;19;20360;-89
2023/08/17 09:33:21;;;;;;;0.60;0.60;;;;;;;;;;7408698;19;20331;-88
2023/08/17 09:35:49;;;;;;;0.77;0.77;;;;;;;;;;7406279;19;20345;-89
2023/08/17 09:38:17;;;;;;;0.85;0.85;;;;;;;;;;7408291;19;20391;-89
2023/08/17 09:40:44;;;;;;;0.70;0.70;;;;;;;;;;7400965;19;20369;-89
2023/08/17 09:43:17;;;;;;;0.77;0.77;;;;;;;;;;7402497;19;20344;-89
2023/08/17 09:45:47;;;;;;;0.80;0.80;;;;;;;;;;7400423;19;20357;-88
2023/08/17 09:48:18;;;;;;;1.00;0.97;;;;;;;;;;7394624;19;20348;-90
2023/08/17 09:50:47;;;;;;;1.25;0.90;;;;;;;;;;7398190;19;20377;-89
2023/08/17 09:53:15;;;;;;;0.73;0.73;;;;;;;;;;7403098;19;20902;-90
2023/08/17 09:55:42;;;;;;;0.60;0.60;;;;;;;;;;7400500;19;20374;-88
2023/08/17 09:58:10;;;;;;;1.20;1.10;;;;;;;;;;7397175;19;20380;-91
2023/08/17 10:00:37;;;;;;;0.65;0.65;;;;;;;;;;7403029;19;20144;-91
2023/08/17 10:03:04;;;;;;;1.17;1.08;;;;;;;;;;7403760;19;20133;-89
2023/08/17 10:05:38;;;;;;;0.70;0.60;;;;;;;;;;7406053;19;20256;-90
2023/08/17 10:08:05;;;;;;;1.02;0.85;;;;;;;;;;7410416;19;20165;-88
2023/08/17 10:10:34;;;;;;;0.95;0.95;;;;;;;;;;7409037;19;20147;-88
2023/08/17 10:13:13;;;;;;;0.50;0.50;;;;;;;;;;7408004;19;20157;-88
2023/08/17 10:15:56;;;;;;;1.00;1.00;;;;;;;;;;7399067;19;20428;-89
2023/08/17 10:18:39;;;;;;;1.05;1.02;;;;;;;;;;7400665;19;20714;-89
2023/08/17 10:21:27;;;;;;;2.95;1.05;;;;;;;;;;7399184;19;20363;-91
2023/08/17 10:23:57;;;;;;;0.70;0.70;;;;;;;;;;7401908;19;20462;-89
2023/08/17 10:26:25;;;;;;;1.10;1.00;;;;;;;;;;7401124;19;20341;-89
2023/08/17 10:28:52;;;;;;;0.75;0.75;;;;;;;;;;7401911;19;20365;-90
2023/08/17 10:31:20;;;;;;;0.70;0.70;;;;;;;;;;7401694;19;20881;-87
2023/08/17 10:33:48;;;;;;;0.95;0.95;;;;;;;;;;7398727;19;20352;-91
2023/08/17 10:36:15;;;;;;;0.80;0.80;;;;;;;;;;7397579;19;20426;-87
2023/08/17 10:38:42;;;;;;;0.95;0.95;;;;;;;;;;7400612;19;20546;-89
2023/08/17 10:41:10;;;;;;;0.95;0.95;;;;;;;;;;7402487;19;20514;-87
2023/08/17 10:43:57;;;;;;;0.63;0.63;;;;;;;;;;7399685;19;20143;-89
2023/08/17 10:46:37;;;;;;;0.47;0.47;;;;;;;;;;7407161;19;20193;-88
2023/08/17 10:49:07;;;;;;;0.95;0.95;;;;;;;;;;7405114;19;20188;-87
2023/08/17 10:51:34;;;;;;;0.70;0.70;;;;;;;;;;7405934;19;20149;-90
2023/08/17 10:54:04;;;;;;;0.75;0.75;;;;;;;;;;7408008;19;20148;-89
2023/08/17 10:56:32;;;;;;;0.65;0.65;;;;;;;;;;7406236;19;20520;-88
2023/08/17 10:59:01;;;;;;;0.50;0.50;;;;;;;;;;7406629;19;20212;-89
2023/08/17 11:01:40;;;;;;;0.68;0.68;;;;;;;;;;7404455;19;20145;-87
2023/08/17 11:04:16;;;;;;;2.33;1.13;;;;;;;;;;7407783;19;20168;-87
2023/08/17 11:06:44;;;;;;;0.95;0.77;;;;;;;;;;7403910;19;20160;-87
2023/08/17 11:09:12;;;;;;;0.40;0.40;;;;;;;;;;7407295;19;20650;-89
2023/08/17 11:11:38;;;;;;;1.08;1.08;;;;;;;;;;7404835;19;20356;-90
2023/08/17 11:14:05;;;;;;;0.68;0.68;;;;;;;;;;7401028;19;20344;-88
2023/08/17 11:16:32;;;;;;;0.73;0.73;;;;;;;;;;7405003;19;20187;-89
2023/08/17 11:19:00;;;;;;;1.50;1.23;;;;;;;;;;7404981;19;20213;-88
2023/08/17 11:21:26;;;;;;;1.10;1.10;;;;;;;;;;7404443;19;20145;-88
2023/08/17 11:23:55;;;;;;;1.38;1.30;;;;;;;;;;7406552;19;20129;-88
2023/08/17 11:26:22;;;;;;;0.95;0.95;;;;;;;;;;7402658;19;20444;-87
2023/08/17 11:28:49;;;;;;;0.73;0.73;;;;;;;;;;7418813;19;20336;-90
2023/08/17 11:31:16;;;;;;;1.55;0.95;;;;;;;;;;7416606;19;20148;-88
2023/08/17 11:33:43;;;;;;;;;;;;;;;;;;7405983;19;20027;-87
2023/08/17 11:36:09;;;;;;;4.78;0.82;;;;;;;;;;7405721;19;20183;-87
2023/08/17 11:38:38;;;;;;;0.45;0.45;;;;;;;;;;7405876;19;20522;-88
2023/08/17 11:41:09;;;;;;;1.42;1.33;;;;;;;;;;7403631;19;20592;-89
2023/08/17 11:43:36;;;;;;;0.60;0.60;;;;;;;;;;7406306;19;20141;-89
2023/08/17 11:46:04;;;;;;;1.20;1.10;;;;;;;;;;7405512;19;20768;-89
2023/08/17 11:48:32;;;;;;;0.85;0.85;;;;;;;;;;7407346;19;20151;-90
2023/08/17 11:51:01;;;;;;;0.60;0.60;;;;;;;;;;7406745;19;20159;-89
2023/08/17 11:53:40;;;;;;;0.68;0.68;;;;;;;;;;7406993;19;20165;-90
2023/08/17 11:56:08;;;;;;;0.82;0.82;;;;;;;;;;7404599;19;20183;-89
2023/08/17 11:58:41;;;;;;;0.40;0.40;;;;;;;;;;7403091;19;20167;-88
2023/08/17 12:01:09;;;;;;;0.93;0.93;;;;;;;;;;7402735;19;20365;-89
2023/08/17 12:03:36;;;;;;;3.95;1.40;;;;;;;;;;7406465;19;20137;-88
2023/08/17 12:06:04;;;;;;;0.80;0.80;;;;;;;;;;7399732;19;20368;-87
2023/08/17 12:08:31;;;;;;;0.90;0.90;;;;;;;;;;7402233;19;20332;-88
2023/08/17 12:10:57;;;;;;;0.70;0.70;;;;;;;;;;7400549;19;20348;-89
2023/08/17 12:13:34;;;;;;;3.70;0.80;;;;;;;;;;7404570;19;20140;-89
2023/08/17 12:16:01;;;;;;;0.50;0.50;;;;;;;;;;7404530;19;20635;-89
2023/08/17 12:18:28;;;;;;;1.05;1.05;;;;;;;;;;7402892;19;20575;-88
2023/08/17 12:20:55;;;;;;;1.02;1.02;;;;;;;;;;7402256;19;20184;-88
2023/08/17 12:23:21;;;;;;;0.38;0.38;;;;;;;;;;7403205;19;20143;-88
2023/08/17 12:25:55;;;;;;;0.50;0.50;;;;;;;;;;7403020;19;20156;-89
2023/08/17 12:28:23;;;;;;;0.60;0.60;;;;;;;;;;7403017;19;20140;-88
2023/08/17 12:31:01;;;;;;;2.15;0.90;;;;;;;;;;7403020;19;20137;-88
2023/08/17 12:33:29;;;;;;;0.70;0.70;;;;;;;;;;7403846;19;20148;-89
2023/08/17 12:35:55;;;;;;;0.40;0.40;;;;;;;;;;7402094;19;20180;-88
2023/08/17 12:38:25;;;;;;;0.93;0.93;;;;;;;;;;7404290;19;20133;-88
2023/08/17 12:40:53;;;;;;;0.57;0.57;;;;;;;;;;7406405;19;20165;-87
2023/08/17 12:43:19;;;;;;;0.80;0.80;;;;;;;;;;7418306;19;20169;-87
2023/08/17 12:45:49;;;;;;;0.57;0.57;;;;;;;;;;7417513;19;20180;-87
2023/08/17 12:48:16;;;;;;;0.57;0.57;;;;;;;;;;7416118;19;20173;-87
2023/08/17 12:50:43;;;;;;;0.85;0.85;;;;;;;;;;7416307;19;20131;-87
2023/08/17 12:53:10;;;;;;;0.90;0.90;;;;;;;;;;7408294;19;20359;-88
2023/08/17 12:55:37;;;;;;;0.70;0.70;;;;;;;;;;7408996;19;20343;-87
2023/08/17 12:58:04;;;;;;;0.88;0.88;;;;;;;;;;7419267;19;20348;-86
2023/08/17 13:00:31;;;;;;;0.68;0.68;;;;;;;;;;7425124;19;20355;-86
2023/08/17 13:02:58;;;;;;;1.10;1.08;;;;;;;;;;7417817;19;20360;-88
2023/08/17 13:05:25;;;;;;;0.88;0.88;;;;;;;;;;7416947;19;20630;-88
2023/08/17 13:07:51;;;;;;;0.63;0.63;;;;;;;;;;7397394;19;20684;-91
2023/08/17 13:10:18;;;;;;;0.68;0.68;;;;;;;;;;7399865;19;20891;-89
2023/08/17 13:12:47;;;;;;;0.47;0.47;;;;;;;;;;7398681;19;20370;-86
2023/08/17 13:15:13;;;;;;;0.75;0.75;;;;;;;;;;7396605;19;20448;-87
2023/08/17 13:17:41;;;;;;;0.75;0.75;;;;;;;;;;7398679;19;20348;-89
2023/08/17 13:20:09;;;;;;;0.80;0.80;;;;;;;;;;7398533;19;20360;-87
2023/08/17 13:22:36;;;;;;;0.70;0.70;;;;;;;;;;7399381;19;20374;-88
2023/08/17 13:25:03;;;;;;;0.60;0.60;;;;;;;;;;7401811;19;20692;-87
2023/08/17 13:27:30;;;;;;;1.10;1.10;;;;;;;;;;7397337;19;20360;-86
2023/08/17 13:29:58;;;;;;;9.02;0.90;;;;;;;;;;7400776;19;20373;-87
2023/08/17 13:32:25;;;;;;;0.57;0.57;;;;;;;;;;7398251;19;20368;-87
2023/08/17 13:34:53;;;;;;;0.73;0.73;;;;;;;;;;7399444;19;20352;-88
2023/08/17 13:37:22;;;;;;;0.70;0.70;;;;;;;;;;7398844;19;20162;-87
2023/08/17 13:39:48;;;;;;;0.80;0.80;;;;;;;;;;7397972;19;20165;-87
2023/08/17 13:42:15;;;;;;;0.75;0.75;;;;;;;;;;7420497;19;20136;-87
2023/08/17 13:44:42;;;;;;;0.40;0.40;;;;;;;;;;7427676;19;20141;-88
2023/08/17 13:47:08;;;;;;;0.40;0.40;;;;;;;;;;7429997;19;20153;-86
2023/08/17 13:49:35;;;;;;;0.40;0.40;;;;;;;;;;7428658;19;20486;-87
2023/08/17 13:52:02;;;;;;;0.47;0.47;;;;;;;;;;7431399;19;20133;-86
2023/08/17 13:54:28;;;;;;;0.45;0.45;;;;;;;;;;7432684;19;20129;-87
2023/08/17 13:56:55;;;;;;;0.50;0.50;;;;;;;;;;7429176;19;20265;-88
2023/08/17 13:59:22;;;;;;;1.65;1.55;;;;;;;;;;7422212;19;20152;-87
2023/08/17 14:01:49;;;;;;;0.68;0.65;;;;;;;;;;7423483;19;20133;-86
2023/08/17 14:04:17;;;;;;;0.47;0.47;;;;;;;;;;7420241;19;20154;-86
2023/08/17 14:06:44;;;;;;;1.00;0.93;;;;;;;;;;7417450;19;20172;-86
2023/08/17 14:09:11;;;;;;;0.55;0.55;;;;;;;;;;7403681;19;20161;-87
2023/08/17 14:11:37;;;;;;;0.40;0.40;;;;;;;;;;7404587;19;20141;-87
2023/08/17 14:14:04;;;;;;;0.60;0.60;;;;;;;;;;7408613;19;20145;-86
2023/08/17 14:16:32;;;;;;;0.50;0.50;;;;;;;;;;7400986;19;20149;-88
2023/08/17 14:18:59;;;;;;;0.77;0.73;;;;;;;;;;7398595;19;20157;-86
2023/08/17 14:21:26;;;;;;;0.50;0.50;;;;;;;;;;7408872;19;20129;-88
2023/08/17 14:23:52;;;;;;;0.50;0.50;;;;;;;;;;7407980;19;20141;-87
2023/08/17 14:26:19;;;;;;;0.80;0.80;;;;;;;;;;7400413;19;20156;-87
2023/08/17 14:28:46;;;;;;;0.70;0.70;;;;;;;;;;7400000;19;20149;-88
2023/08/17 14:31:17;;;;;;;0.70;0.70;;;;;;;;;;7399339;19;20137;-88
2023/08/17 14:33:47;;;;;;;0.60;0.60;;;;;;;;;;7398515;19;20141;-87
2023/08/17 14:36:14;;;;;;;6.57;1.02;;;;;;;;;;7397262;19;20436;-87
2023/08/17 14:38:45;;;;;;;0.43;0.43;;;;;;;;;;7399617;19;20148;-89
2023/08/17 14:41:12;;;;;;;2.15;0.68;;;;;;;;;;7397630;19;20125;-88
2023/08/17 14:43:38;;;;;;;0.60;0.60;;;;;;;;;;7398958;19;20145;-88
2023/08/17 14:46:05;;;;;;;0.68;0.68;;;;;;;;;;7400608;19;20193;-87
2023/08/17 14:48:32;;;;;;;0.90;0.82;;;;;;;;;;7401081;19;20169;-88